OOCL Atlanta — VRAR6 — position and weather

sailwx.info

Track history (hours):
 
Tides and Currents Weather Stations Pressure Air Temp Water Temp Dewpoint Dewpoint Depression Visibility Wind Speed Wind Dir Waves Ship Positions

OOCL Atlanta

Last reported at 2014-Oct-28 23:31 UTC. Time now 2014-Nov-01 12:00 UTC.
Position N 01°15' E 104°04'.

Length 323 m; beam 42.8 m; draft 14.5 m.

Type: Cargo ship. MMSI: 477920300.

Date/timePositionNaut miles runAvg speedWind from/ knotsBaromVisibWave heightAir tempDewpointWater temp
2014-Oct-28 23:31N 01°15' E 104°04'1213.0
2014-Oct-28 22:33N 01°15' E 103°51'1 0.9
2014-Oct-28 21:34N 01°16' E 103°51'0 0.1
2014-Oct-28 20:34N 01°16' E 103°51'0 0.1
2014-Oct-28 19:34N 01°16' E 103°51'0 0.0
2014-Oct-28 18:28N 01°16' E 103°51'0 0.0
2014-Oct-28 15:34N 01°16' E 103°51'0 0.0
2014-Oct-28 14:34N 01°16' E 103°51'0 0.0
2014-Oct-28 13:34N 01°16' E 103°51'0 0.0
2014-Oct-28 12:34N 01°16' E 103°51'0 0.0
2014-Oct-28 11:34N 01°16' E 103°51'0 0.0
2014-Oct-28 10:28N 01°16' E 103°51'0 0.0
2014-Oct-28 09:31N 01°16' E 103°51'0 0.0
2014-Oct-28 08:34N 01°16' E 103°51'0 0.0
2014-Oct-28 07:34N 01°16' E 103°51'0 0.0
2014-Oct-28 06:34N 01°16' E 103°51'0 0.0
2014-Oct-28 05:34N 01°16' E 103°51'0 0.0
2014-Oct-28 04:28N 01°16' E 103°51'0 0.0
2014-Oct-28 03:31N 01°16' E 103°51'0 0.0
2014-Oct-28 02:34N 01°16' E 103°51'0 0.0
2014-Oct-28 01:34N 01°16' E 103°51'0 0.0
2014-Oct-27 23:19N 01°16' E 103°51'0 0.0
2014-Oct-27 22:34N 01°16' E 103°51'0 0.0
2014-Oct-27 21:04N 01°16' E 103°51'0 0.0
2014-Oct-27 20:34N 01°16' E 103°51'0 0.0
2014-Oct-27 19:34N 01°16' E 103°51'0 0.0
2014-Oct-27 18:34N 01°16' E 103°51'0 0.0
2014-Oct-27 17:28N 01°16' E 103°51'0 0.0
2014-Oct-27 16:19N 01°16' E 103°51'0 0.0
2014-Oct-27 14:34N 01°16' E 103°51'0 0.0
2014-Oct-27 13:34N 01°16' E 103°51'0 0.0
2014-Oct-27 12:04N 01°16' E 103°51'0 0.0
2014-Oct-27 11:34N 01°16' E 103°51'0 0.0
2014-Oct-27 09:13N 01°16' E 103°51'0 0.0
2014-Oct-27 08:31N 01°16' E 103°51'0 0.0
2014-Oct-27 07:34N 01°16' E 103°51'0 0.0
2014-Oct-27 06:34N 01°16' E 103°51'0 0.0
2014-Oct-27 04:31N 01°16' E 103°51'0 0.0
2014-Oct-27 03:34N 01°16' E 103°51'0 0.1
2014-Oct-27 02:33N 01°16' E 103°51'3 2.6
2014-Oct-27 01:33N 01°14' E 103°53'5 4.6
2014-Oct-27 00:33N 01°15' E 103°57'1212.0
2014-Oct-26 23:33N 01°17' E 104°09'  
2014-Oct-23 00:22N 22°14' E 119°56'1518.5
2014-Oct-22 23:33N 22°26' E 120°06'1412.8
2014-Oct-22 22:26N 22°33' E 120°20'1 0.1
2014-Oct-22 12:23N 22°34' E 120°19'0 0.0
2014-Oct-22 10:17N 22°34' E 120°19'1 1.6
2014-Oct-22 09:33N 22°33' E 120°19'4 4.1
2014-Oct-22 08:33N 22°32' E 120°15'4 3.7
2014-Oct-22 07:29N 22°33' E 120°11'1313.7
2014-Oct-22 06:33N 22°45' E 120°05'1814.0
2014-Oct-22 05:18N 23°01' E 119°58'  
Track history (hours):
 
Tides and Currents Weather Stations Pressure Air Temp Water Temp Dewpoint Dewpoint Depression Visibility Wind Speed Wind Dir Waves Ship Positions

OOCL Atlanta

Last reported at 2014-Oct-28 23:31 UTC. Time now 2014-Nov-01 12:00 UTC.
Position N 01°15' E 104°04'.

Length 323 m; beam 42.8 m; draft 14.5 m.

Type: Cargo ship. MMSI: 477920300.

Date/timePositionNaut miles runAvg speedWind from/ knotsBaromVisibWave heightAir tempDewpointWater temp
2014-Oct-28 23:31N 01°15' E 104°04'1213.0
2014-Oct-28 22:33N 01°15' E 103°51'1 0.9
2014-Oct-28 21:34N 01°16' E 103°51'0 0.1
2014-Oct-28 20:34N 01°16' E 103°51'0 0.1
2014-Oct-28 19:34N 01°16' E 103°51'0 0.0
2014-Oct-28 18:28N 01°16' E 103°51'0 0.0
2014-Oct-28 15:34N 01°16' E 103°51'0 0.0
2014-Oct-28 14:34N 01°16' E 103°51'0 0.0
2014-Oct-28 13:34N 01°16' E 103°51'0 0.0
2014-Oct-28 12:34N 01°16' E 103°51'0 0.0
2014-Oct-28 11:34N 01°16' E 103°51'0 0.0
2014-Oct-28 10:28N 01°16' E 103°51'0 0.0
2014-Oct-28 09:31N 01°16' E 103°51'0 0.0
2014-Oct-28 08:34N 01°16' E 103°51'0 0.0
2014-Oct-28 07:34N 01°16' E 103°51'0 0.0
2014-Oct-28 06:34N 01°16' E 103°51'0 0.0
2014-Oct-28 05:34N 01°16' E 103°51'0 0.0
2014-Oct-28 04:28N 01°16' E 103°51'0 0.0
2014-Oct-28 03:31N 01°16' E 103°51'0 0.0
2014-Oct-28 02:34N 01°16' E 103°51'0 0.0
2014-Oct-28 01:34N 01°16' E 103°51'0 0.0
2014-Oct-27 23:19N 01°16' E 103°51'0 0.0
2014-Oct-27 22:34N 01°16' E 103°51'0 0.0
2014-Oct-27 21:04N 01°16' E 103°51'0 0.0
2014-Oct-27 20:34N 01°16' E 103°51'0 0.0
2014-Oct-27 19:34N 01°16' E 103°51'0 0.0
2014-Oct-27 18:34N 01°16' E 103°51'0 0.0
2014-Oct-27 17:28N 01°16' E 103°51'0 0.0
2014-Oct-27 16:19N 01°16' E 103°51'0 0.0
2014-Oct-27 14:34N 01°16' E 103°51'0 0.0
2014-Oct-27 13:34N 01°16' E 103°51'0 0.0
2014-Oct-27 12:04N 01°16' E 103°51'0 0.0
2014-Oct-27 11:34N 01°16' E 103°51'0 0.0
2014-Oct-27 09:13N 01°16' E 103°51'0 0.0
2014-Oct-27 08:31N 01°16' E 103°51'0 0.0
2014-Oct-27 07:34N 01°16' E 103°51'0 0.0
2014-Oct-27 06:34N 01°16' E 103°51'0 0.0
2014-Oct-27 04:31N 01°16' E 103°51'0 0.0
2014-Oct-27 03:34N 01°16' E 103°51'0 0.1
2014-Oct-27 02:33N 01°16' E 103°51'3 2.6
2014-Oct-27 01:33N 01°14' E 103°53'5 4.6
2014-Oct-27 00:33N 01°15' E 103°57'1212.0
2014-Oct-26 23:33N 01°17' E 104°09'  
2014-Oct-23 00:22N 22°14' E 119°56'1518.5
2014-Oct-22 23:33N 22°26' E 120°06'1412.8
2014-Oct-22 22:26N 22°33' E 120°20'1 0.1
2014-Oct-22 12:23N 22°34' E 120°19'0 0.0
2014-Oct-22 10:17N 22°34' E 120°19'1 1.6
2014-Oct-22 09:33N 22°33' E 120°19'4 4.1
2014-Oct-22 08:33N 22°32' E 120°15'4 3.7
2014-Oct-22 07:29N 22°33' E 120°11'1313.7
2014-Oct-22 06:33N 22°45' E 120°05'1814.0
2014-Oct-22 05:18N 23°01' E 119°58'  

Dump ship's entire track history